Time;durP1;ratioP1;P1;durP2;ratioP2;P2;SDS_P1;SDS_P2;PMS_P1;PMS_P2;Temp;Humidity;BMP_temperature;BMP_pressure;BME280_temperature;BME280_humidity;BME280_pressure;Samples;Min_cycle;Max_cycle;Signal;HPM_P1;HPM_P2
2021/12/29 00:01:00;;;;;;;45.50;23.13;;;;;;;-142.18;100.00;39482.06;5069594;28;20114;-74
2021/12/29 00:03:27;;;;;;;38.15;20.88;;;;;;;-142.18;100.00;31247.13;5072187;28;20067;-74
2021/12/29 00:05:54;;;;;;;35.50;20.02;;;;;;;-142.18;100.00;37174.63;5071983;28;20053;-74
2021/12/29 00:08:21;;;;;;;35.45;20.67;;;;;;;-142.18;100.00;37120.28;5072652;28;20092;-74
2021/12/29 00:10:54;;;;;;;41.40;22.33;;;;;;;-142.18;100.00;43407.44;5071953;28;20061;-74
2021/12/29 00:13:23;;;;;;;49.65;24.85;;;;;;;-142.18;100.00;34973.13;5070929;27;20164;-74
2021/12/29 00:15:57;;;;;;;31.40;18.45;;;;;;;-142.18;100.00;39016.84;5070828;28;20060;-75
2021/12/29 00:18:29;;;;;;;31.48;18.30;;;;;;;-142.18;100.00;40422.75;5052976;28;20071;-74
2021/12/29 00:20:58;;;;;;;32.00;18.15;;;;;;;-142.18;100.00;41819.09;5063576;28;20081;-74
2021/12/29 00:23:26;;;;;;;32.50;19.95;;;;;;;-142.18;100.00;41762.66;5050439;27;20068;-74
2021/12/29 00:25:53;;;;;;;40.42;22.58;;;;;;;-142.18;100.00;27600.94;5051145;28;20144;-74
2021/12/29 00:28:20;;;;;;;31.77;18.65;;;;;;;-142.18;100.00;34192.66;5052236;28;20068;-74
2021/12/29 00:30:47;;;;;;;32.45;18.35;;;;;;;-142.18;100.00;38894.00;5034467;28;20549;-74
2021/12/29 00:33:15;;;;;;;32.60;17.77;;;;;;;-142.18;100.00;35745.72;5052668;28;20057;-74
2021/12/29 00:35:42;;;;;;;31.08;17.83;;;;;;;-142.18;100.00;36751.94;5052076;28;20061;-74
2021/12/29 00:38:10;;;;;;;47.60;23.30;;;;;;;-142.18;100.00;40489.22;5052369;28;20053;-74
2021/12/29 00:40:38;;;;;;;42.17;21.40;;;;;;;-142.18;100.00;35132.06;5050620;28;20122;-74
2021/12/29 00:43:06;;;;;;;35.03;18.33;;;;;;;-142.18;100.00;30602.00;5067134;28;20076;-74
2021/12/29 00:45:36;;;;;;;27.48;15.25;;;;;;;-142.18;100.00;29959.00;5034833;28;20123;-74
2021/12/29 00:48:05;;;;;;;27.63;14.65;;;;;;;-142.18;100.00;18876.00;5051769;28;20061;-74
2021/12/29 00:50:33;;;;;;;23.92;13.02;;;;;;;-142.18;100.00;7608.72;5051587;28;20057;-74
2021/12/29 00:53:00;;;;;;;20.23;11.57;;;;;;;-142.18;100.00;-820.28;5051752;28;20136;-74
2021/12/29 00:55:27;;;;;;;22.60;13.07;;;;;;;-142.18;100.00;3008.81;5052557;28;20053;-74
2021/12/29 00:57:56;;;;;;;28.42;14.50;;;;;;;-142.18;100.00;5308.09;5072084;28;20056;-74
2021/12/29 01:00:25;;;;;;;33.55;15.88;;;;;;;-142.18;100.00;20404.97;5054131;28;20064;-74
2021/12/29 01:02:52;;;;;;;28.45;14.38;;;;;;;-142.18;100.00;24229.00;5071633;28;20514;-74
2021/12/29 01:05:20;;;;;;;27.25;15.20;;;;;;;-142.18;100.00;23065.56;5071524;28;20441;-74
2021/12/29 01:07:49;;;;;;;28.60;15.02;;;;;;;-142.18;100.00;16824.97;5052812;28;20068;-74
2021/12/29 01:10:17;;;;;;;29.98;16.00;;;;;;;-142.18;100.00;19639.41;5053605;28;20113;-74
2021/12/29 01:12:51;;;;;;;31.13;16.83;;;;;;;-142.18;100.00;12726.16;5054488;28;20065;-74
2021/12/29 01:15:25;;;;;;;29.10;16.38;;;;;;;-142.18;100.00;21399.22;5070245;28;20177;-74
2021/12/29 01:17:54;;;;;;;30.25;16.23;;;;;;;-142.18;100.00;3264.22;5053632;28;20085;-74
2021/12/29 01:20:21;;;;;;;31.13;17.27;;;;;;;-142.18;100.00;5563.63;5072144;28;20065;-74
2021/12/29 01:22:48;;;;;;;31.40;18.20;;;;;;;-142.18;100.00;11446.16;5054072;28;20486;-74
2021/12/29 01:25:15;;;;;;;40.13;19.10;;;;;;;-142.18;100.00;19635.41;5054965;28;20061;-74
2021/12/29 01:27:42;;;;;;;31.00;16.35;;;;;;;-142.18;100.00;17698.13;5055589;28;20061;-74
2021/12/29 01:30:10;;;;;;;44.50;19.90;;;;;;;-142.18;100.00;17337.63;5072323;28;20057;-74
2021/12/29 01:32:38;;;;;;;36.63;18.55;;;;;;;-142.18;100.00;20867.97;5072226;28;20087;-74
2021/12/29 01:35:07;;;;;;;33.13;16.95;;;;;;;-142.18;100.00;23715.44;5059491;28;20065;-74
2021/12/29 01:37:34;;;;;;;23.98;12.57;;;;;;;-142.18;100.00;16318.38;5034653;28;20510;-74
2021/12/29 01:40:05;;;;;;;29.92;15.63;;;;;;;-142.18;100.00;11190.22;5051018;28;20689;-74
2021/12/29 01:42:32;;;;;;;21.55;12.70;;;;;;;-142.18;100.00;18142.78;5051554;28;20398;-74
2021/12/29 01:44:59;;;;;;;32.70;16.60;;;;;;;-142.18;100.00;6330.41;5033561;28;20089;-72
2021/12/29 01:47:28;;;;;;;27.60;15.25;;;;;;;-142.18;100.00;3775.09;5035089;28;20760;-73
2021/12/29 01:49:57;;;;;;;36.88;17.95;;;;;;;-142.18;100.00;2242.69;5034326;28;20059;-73
2021/12/29 01:52:31;;;;;;;31.45;16.50;;;;;;;-142.18;100.00;9910.72;5034843;28;20152;-74
2021/12/29 01:54:59;;;;;;;34.88;17.67;;;;;;;-142.18;100.00;8631.66;5035743;28;20102;-74
2021/12/29 01:57:28;;;;;;;42.17;21.50;;;;;;;-142.18;100.00;2242.69;5035160;28;20164;-74
2021/12/29 01:59:55;;;;;;;39.60;18.65;;;;;;;-142.18;100.00;11446.16;5035243;28;20063;-74
2021/12/29 02:02:22;;;;;;;31.73;16.42;;;;;;;-142.18;100.00;6074.81;5035103;28;20072;-74
2021/12/29 02:04:49;;;;;;;37.35;19.60;;;;;;;-142.18;100.00;2242.69;5035704;28;20067;-74
2021/12/29 02:07:16;;;;;;;37.33;18.92;;;;;;;-142.18;100.00;1987.34;5052423;28;20449;-74
2021/12/29 02:09:43;;;;;;;38.17;20.80;;;;;;;-142.18;100.00;-3880.78;5035250;28;20134;-74
2021/12/29 02:12:10;;;;;;;79.45;29.35;;;;;;;-142.18;100.00;1987.34;5033757;28;20045;-74
2021/12/29 02:14:38;;;;;;;39.13;20.58;;;;;;;-142.18;100.00;4541.50;5051906;28;20085;-74
2021/12/29 02:17:05;;;;;;;49.42;25.10;;;;;;;-142.18;100.00;5819.22;5017430;28;20061;-74
2021/12/29 02:19:32;;;;;;;40.17;21.55;;;;;;;-142.18;100.00;9654.88;5051097;28;20065;-74
2021/12/29 02:22:28;;;;;;;38.13;20.67;;;;;;;-142.18;100.00;10166.59;5034184;28;20245;-75
2021/12/29 02:24:54;;;;;;;31.55;18.65;;;;;;;-142.18;100.00;-2605.88;5049504;28;20138;-74
2021/12/29 02:27:21;;;;;;;48.67;22.45;;;;;;;-142.18;100.00;-3880.78;5084651;28;20453;-74
2021/12/29 02:29:50;;;;;;;50.65;23.00;;;;;;;-142.18;100.00;710.91;5072404;28;20132;-74
2021/12/29 02:32:17;;;;;;;40.35;22.23;;;;;;;-142.18;100.00;3519.63;5054491;28;20868;-74
2021/12/29 02:34:44;;;;;;;47.67;23.20;;;;;;;-142.18;100.00;710.91;5053904;28;20063;-74
2021/12/29 02:37:18;;;;;;;47.58;23.23;;;;;;;-142.18;100.00;-1585.63;5071600;28;20068;-74
2021/12/29 02:39:46;;;;;;;40.50;19.23;;;;;;;-142.18;100.00;-7448.31;5071257;27;20644;-74
2021/12/29 02:42:15;;;;;;;43.78;20.48;;;;;;;-142.18;100.00;-11521.44;5070469;28;20121;-75
2021/12/29 02:44:43;;;;;;;55.88;25.88;;;;;;;-142.18;100.00;-13810.69;5054711;28;20071;-74
2021/12/29 02:47:10;;;;;;;55.83;27.42;;;;;;;-142.18;100.00;-13810.69;5058949;27;20114;-74
2021/12/29 02:49:37;;;;;;;40.55;18.98;;;;;;;-142.18;100.00;-13812.19;5057314;28;20074;-74
2021/12/29 02:52:05;;;;;;;42.58;18.98;;;;;;;-142.18;100.00;-13812.19;5057108;28;20105;-74
2021/12/29 02:54:32;;;;;;;27.90;12.60;;;;;;;-142.18;100.00;-13812.19;5053747;28;20073;-74
2021/12/29 02:56:58;;;;;;;25.10;11.95;;;;;;;-142.18;100.00;-13812.19;5038067;28;20061;-74
2021/12/29 02:59:25;;;;;;;17.73;7.85;;;;;;;-142.18;100.00;-13812.19;5063679;28;20802;-72
2021/12/29 03:01:52;;;;;;;6.15;3.38;;;;;;;-142.18;100.00;-13812.19;5063209;27;20062;-72
2021/12/29 03:04:20;;;;;;;5.97;3.17;;;;;;;-142.18;100.00;-13812.19;5054412;28;20065;-72
2021/12/29 03:06:47;;;;;;;3.85;2.40;;;;;;;-142.18;100.00;-13812.19;5036395;28;20072;-72
2021/12/29 03:09:16;;;;;;;5.93;2.38;;;;;;;-142.18;100.00;-13812.19;5054349;28;20068;-73
2021/12/29 03:11:45;;;;;;;4.47;2.35;;;;;;;-142.18;100.00;-13812.19;5054000;28;20069;-72
2021/12/29 03:14:13;;;;;;;3.45;2.08;;;;;;;-142.18;100.00;-13812.19;5054381;28;20093;-72
2021/12/29 03:16:41;;;;;;;4.63;2.20;;;;;;;-142.18;100.00;-13812.19;5054418;28;20084;-73
2021/12/29 03:19:08;;;;;;;4.45;1.85;;;;;;;-142.18;100.00;-13812.19;5037931;28;20057;-73
2021/12/29 03:21:36;;;;;;;3.40;2.10;;;;;;;-142.18;100.00;-13812.19;5053154;28;20455;-73
2021/12/29 03:24:04;;;;;;;4.90;2.08;;;;;;;-142.18;100.00;-13812.19;5053785;28;20144;-73
2021/12/29 03:26:32;;;;;;;3.65;1.70;;;;;;;-142.18;100.00;-13812.19;5037001;28;20061;-73
2021/12/29 03:28:59;;;;;;;3.30;2.00;;;;;;;-142.18;100.00;-13812.19;5047016;28;21064;-72
2021/12/29 03:31:27;;;;;;;3.38;1.88;;;;;;;-142.18;100.00;-13812.19;5036723;28;20805;-72
2021/12/29 03:33:54;;;;;;;3.33;1.70;;;;;;;-142.18;100.00;-13812.19;5054169;28;20399;-73
2021/12/29 03:36:21;;;;;;;3.60;1.60;;;;;;;-142.18;100.00;-13812.19;5036704;28;20065;-73
2021/12/29 03:38:51;;;;;;;2.55;1.80;;;;;;;-142.18;100.00;-13812.19;5055040;28;20127;-73
2021/12/29 03:41:20;;;;;;;3.40;1.90;;;;;;;-142.18;100.00;-13812.19;5035386;28;20072;-73
2021/12/29 03:43:47;;;;;;;4.75;2.30;;;;;;;-142.18;100.00;-13812.19;5052877;28;20061;-72
2021/12/29 03:46:15;;;;;;;5.13;2.40;;;;;;;-142.18;100.00;-13812.19;5035350;28;20747;-73
2021/12/29 03:48:44;;;;;;;3.75;2.42;;;;;;;-142.18;100.00;-13812.19;5053531;28;20122;-72
2021/12/29 03:51:11;;;;;;;5.90;3.05;;;;;;;-142.18;100.00;-13812.19;5053357;28;20061;-72
2021/12/29 03:53:39;;;;;;;5.88;3.30;;;;;;;-142.18;100.00;-13812.19;5053628;27;20144;-72
2021/12/29 03:56:07;;;;;;;6.75;3.38;;;;;;;-142.18;100.00;-13812.19;5067661;28;20099;-73
2021/12/29 03:58:34;;;;;;;8.82;4.18;;;;;;;-142.18;100.00;-13812.19;5087888;27;20104;-73
2021/12/29 04:01:07;;;;;;;6.10;3.50;;;;;;;-142.18;100.00;-13812.19;5071851;27;20790;-73
2021/12/29 04:03:34;;;;;;;;;;;;;;;-142.18;100.00;-13812.19;5073638;28;20053;-72
2021/12/29 04:06:01;;;;;;;8.32;3.53;;;;;;;-142.18;100.00;-13812.19;5072691;27;19934;-72
2021/12/29 04:08:28;;;;;;;8.15;3.92;;;;;;;-142.18;100.00;-13812.19;5073211;27;20097;-72
2021/12/29 04:10:55;;;;;;;10.07;3.97;;;;;;;-142.18;100.00;-13812.19;5073315;28;20751;-73
2021/12/29 04:13:22;;;;;;;9.45;4.18;;;;;;;-142.18;100.00;-13812.19;5073157;28;20144;-72
2021/12/29 04:15:49;;;;;;;6.15;3.28;;;;;;;-142.18;100.00;-13812.19;5055243;28;20135;-72
2021/12/29 04:18:25;;;;;;;7.30;3.50;;;;;;;-142.18;100.00;-13812.19;5055000;28;20088;-72
2021/12/29 04:21:03;;;;;;;6.40;3.35;;;;;;;-142.18;100.00;-13812.19;5072479;28;20091;-73
2021/12/29 04:23:35;;;;;;;5.88;2.95;;;;;;;-142.18;100.00;-13812.19;5073234;28;20113;-73
2021/12/29 04:26:05;;;;;;;8.02;3.22;;;;;;;-142.18;100.00;-13812.19;5072697;28;20060;-73
2021/12/29 04:28:32;;;;;;;6.53;3.25;;;;;;;-142.18;100.00;-13812.19;5073032;28;20053;-73
2021/12/29 04:31:05;;;;;;;5.68;2.53;;;;;;;-142.18;100.00;-13812.19;5072853;28;20417;-73
2021/12/29 04:33:34;;;;;;;4.78;2.55;;;;;;;-142.18;100.00;-13812.19;5072514;28;20156;-73
2021/12/29 04:36:01;;;;;;;3.58;2.10;;;;;;;-142.18;100.00;-13812.19;5072576;28;20113;-73
2021/12/29 04:38:27;;;;;;;4.95;2.20;;;;;;;-142.18;100.00;-13812.19;5052183;28;20072;-73
2021/12/29 04:40:55;;;;;;;4.32;2.30;;;;;;;-142.18;100.00;-13812.19;5052362;28;20122;-73
2021/12/29 04:43:24;;;;;;;2.53;1.42;;;;;;;-142.18;100.00;-13812.19;5053433;27;20057;-73
2021/12/29 04:45:52;;;;;;;2.85;1.75;;;;;;;-142.18;100.00;-13812.19;5053637;28;20063;-73
2021/12/29 04:48:22;;;;;;;2.80;1.38;;;;;;;-142.18;100.00;-13812.19;5054413;27;20134;-73
2021/12/29 04:51:03;;;;;;;2.58;1.10;;;;;;;-142.18;100.00;-13812.19;5035694;28;20107;-73
2021/12/29 04:53:31;;;;;;;1.65;1.10;;;;;;;-142.18;100.00;-13812.19;5058485;28;20067;-73
2021/12/29 04:55:57;;;;;;;1.20;0.80;;;;;;;-142.18;100.00;-13812.19;5072489;28;20068;-73
2021/12/29 04:58:24;;;;;;;0.90;0.80;;;;;;;-142.18;100.00;-13812.19;5072678;28;20086;-72
2021/12/29 05:00:53;;;;;;;1.00;0.90;;;;;;;-142.18;100.00;-13812.19;5072159;28;20143;-73
2021/12/29 05:03:21;;;;;;;0.80;0.80;;;;;;;-142.18;100.00;-13812.19;5074146;28;20060;-72
2021/12/29 05:08:33;;;;;;;0.93;0.65;;;;;;;-142.18;100.00;-13812.19;5073078;28;20087;-73
2021/12/29 05:11:05;;;;;;;0.70;0.63;;;;;;;-142.18;100.00;-13812.19;5073291;28;20276;-72
2021/12/29 05:13:34;;;;;;;1.20;0.90;;;;;;;-142.18;100.00;-13812.19;5072723;28;20057;-73
2021/12/29 05:16:02;;;;;;;0.73;0.70;;;;;;;-142.18;100.00;-13812.19;5073580;28;20064;-73
2021/12/29 05:18:31;;;;;;;1.00;0.73;;;;;;;-142.18;100.00;-13812.19;5072230;28;20121;-73
2021/12/29 05:20:59;;;;;;;0.77;0.60;;;;;;;-142.18;100.00;-13812.19;5089351;27;20471;-73
2021/12/29 05:23:26;;;;;;;2.67;0.98;;;;;;;-142.18;100.00;-13812.19;5055606;28;20061;-73
2021/12/29 05:25:54;;;;;;;1.80;1.02;;;;;;;-142.18;100.00;-13812.19;5054397;28;20401;-73
2021/12/29 05:28:23;;;;;;;2.53;1.00;;;;;;;-142.18;100.00;-13812.19;5073124;28;20304;-73
2021/12/29 05:30:52;;;;;;;1.45;1.00;;;;;;;-142.18;100.00;-13812.19;5073256;28;20358;-73
2021/12/29 05:33:19;;;;;;;3.25;1.20;;;;;;;-142.18;100.00;-13812.19;5074056;27;20053;-73
2021/12/29 05:35:46;;;;;;;2.70;1.10;;;;;;;-142.18;100.00;-13812.19;5052493;28;20770;-73
2021/12/29 05:38:12;;;;;;;2.58;1.20;;;;;;;-142.18;100.00;-13812.19;5036098;28;20085;-73
2021/12/29 05:40:39;;;;;;;1.92;1.10;;;;;;;-142.18;100.00;-13812.19;5034768;28;20065;-73
2021/12/29 05:43:06;;;;;;;1.50;0.90;;;;;;;-142.18;100.00;-13812.19;5052184;28;20057;-73
2021/12/29 05:45:33;;;;;;;1.80;1.20;;;;;;;-142.18;100.00;-13812.19;5051144;28;20068;-73
2021/12/29 05:48:01;;;;;;;3.28;1.90;;;;;;;-142.18;100.00;-13812.19;5051554;28;20061;-73
2021/12/29 05:50:29;;;;;;;5.72;2.47;;;;;;;-142.18;100.00;-13812.19;5052055;28;20738;-73
2021/12/29 05:52:57;;;;;;;7.40;3.22;;;;;;;-142.18;100.00;-13812.19;5051126;28;20057;-73
2021/12/29 05:55:25;;;;;;;8.95;3.67;;;;;;;-142.18;100.00;-13812.19;5051289;28;20139;-74
2021/12/29 05:57:52;;;;;;;7.82;3.67;;;;;;;-142.18;100.00;-13812.19;5050562;28;20565;-73
2021/12/29 06:00:21;;;;;;;9.05;4.50;;;;;;;-142.18;100.00;-13812.19;5050662;28;20065;-74
2021/12/29 06:02:48;;;;;;;8.75;4.25;;;;;;;-142.18;100.00;-13812.19;5045877;28;20087;-73
2021/12/29 06:05:16;;;;;;;12.35;5.07;;;;;;;-142.18;100.00;-13812.19;5050711;28;20062;-73
2021/12/29 06:07:43;;;;;;;6.65;4.15;;;;;;;-142.18;100.00;-13812.19;5051443;28;20061;-73
2021/12/29 06:10:10;;;;;;;8.27;4.68;;;;;;;-142.18;100.00;-13812.19;5052797;28;20822;-73
2021/12/29 06:12:39;;;;;;;7.25;3.90;;;;;;;-142.18;100.00;-13812.19;5051648;27;20061;-73
2021/12/29 06:15:07;;;;;;;9.45;4.40;;;;;;;-142.18;100.00;-13812.19;5034367;28;20067;-73
2021/12/29 06:17:34;;;;;;;9.48;4.57;;;;;;;-142.18;100.00;-13812.19;5051353;28;20141;-73
2021/12/29 06:20:02;;;;;;;9.65;4.50;;;;;;;-142.18;100.00;-13812.19;5051929;28;20071;-73
2021/12/29 06:22:29;;;;;;;12.23;5.32;;;;;;;-142.18;100.00;-13812.19;5054325;28;20068;-73
2021/12/29 06:24:55;;;;;;;9.75;5.07;;;;;;;-142.18;100.00;-13812.19;5054091;28;20448;-73
2021/12/29 06:27:23;;;;;;;12.57;5.30;;;;;;;-142.18;100.00;-13812.19;5053831;28;20084;-73
2021/12/29 06:29:51;;;;;;;7.45;4.40;;;;;;;-142.18;100.00;-13812.19;5036648;28;20077;-73
2021/12/29 06:32:18;;;;;;;10.63;5.05;;;;;;;-142.18;100.00;-13812.19;5054957;27;20088;-73
2021/12/29 06:34:45;;;;;;;11.88;6.63;;;;;;;-142.18;100.00;-13812.19;5054797;28;20064;-74
2021/12/29 06:37:13;;;;;;;11.77;5.40;;;;;;;-142.18;100.00;-13812.19;5054303;28;20069;-74
2021/12/29 06:39:45;;;;;;;9.60;5.28;;;;;;;-142.18;100.00;-13812.19;5053962;28;20085;-74
2021/12/29 06:42:15;;;;;;;11.77;5.63;;;;;;;-142.18;100.00;-13812.19;5046980;28;20136;-74
2021/12/29 06:44:43;;;;;;;8.32;5.00;;;;;;;-142.18;100.00;-13812.19;5034992;28;20083;-75
2021/12/29 06:47:11;;;;;;;13.02;5.55;;;;;;;-142.18;100.00;-13812.19;5057964;27;20053;-73
2021/12/29 06:49:43;;;;;;;11.57;5.70;;;;;;;-142.18;100.00;-13812.19;5019113;28;20069;-75
2021/12/29 06:52:10;;;;;;;11.00;5.15;;;;;;;-142.18;100.00;-13812.19;5053507;28;20061;-74
2021/12/29 06:54:37;;;;;;;11.85;6.38;;;;;;;-142.18;100.00;-13812.19;5035381;28;20061;-74
2021/12/29 06:57:06;;;;;;;9.68;6.15;;;;;;;-142.18;100.00;-13812.19;5037060;28;20144;-74
2021/12/29 06:59:33;;;;;;;10.25;5.63;;;;;;;-142.18;100.00;-13812.19;5073565;28;20072;-74
2021/12/29 07:02:01;;;;;;;15.23;6.60;;;;;;;-142.18;100.00;-13812.19;5054520;28;20088;-75
2021/12/29 07:04:28;;;;;;;10.55;5.40;;;;;;;-142.18;100.00;-13812.19;5072514;28;20053;-74
2021/12/29 07:06:55;;;;;;;11.13;5.47;;;;;;;-142.18;100.00;-13812.19;5054931;28;20061;-74
2021/12/29 07:09:22;;;;;;;9.43;5.63;;;;;;;-142.18;100.00;-13812.19;5071432;28;20484;-74
2021/12/29 07:11:51;;;;;;;10.13;5.15;;;;;;;-142.18;100.00;-13812.19;5071739;27;20142;-74
2021/12/29 07:14:21;;;;;;;11.27;5.65;;;;;;;-142.18;100.00;-13812.19;5055022;27;20080;-73
2021/12/29 07:16:49;;;;;;;14.38;6.50;;;;;;;-142.18;100.00;-13812.19;5037022;28;20569;-74
2021/12/29 07:19:18;;;;;;;9.25;5.72;;;;;;;-142.18;100.00;-13812.19;5071413;27;20492;-73
2021/12/29 07:21:46;;;;;;;11.68;5.70;;;;;;;-142.18;100.00;-13812.19;5071293;28;20144;-74
2021/12/29 07:24:13;;;;;;;10.35;5.80;;;;;;;-142.18;100.00;-13812.19;5071463;28;20480;-73
2021/12/29 07:26:40;;;;;;;8.73;5.30;;;;;;;-142.18;100.00;-13812.19;5071843;28;20126;-73
2021/12/29 07:29:07;;;;;;;10.32;5.03;;;;;;;-142.18;100.00;-13812.19;5072619;28;20139;-74
2021/12/29 07:31:34;;;;;;;9.80;5.18;;;;;;;-142.18;100.00;-13812.19;5052784;28;20144;-73
2021/12/29 07:34:21;;;;;;;12.20;5.65;;;;;;;-142.18;100.00;-13812.19;5151344;27;20062;-74
2021/12/29 07:36:48;;;;;;;10.48;5.30;;;;;;;-142.18;100.00;-13812.19;5112106;27;20068;-73
2021/12/29 07:39:17;;;;;;;10.88;5.28;;;;;;;-142.18;100.00;-13812.19;5069260;27;20067;-73
2021/12/29 07:41:47;;;;;;;11.27;5.53;;;;;;;-142.18;100.00;-13812.19;5051232;28;20068;-74
2021/12/29 07:44:17;;;;;;;12.23;6.43;;;;;;;-142.18;100.00;-13812.19;5094079;28;20052;-73
2021/12/29 07:46:49;;;;;;;13.18;6.50;;;;;;;-142.18;100.00;-13812.19;5069408;27;20066;-74
2021/12/29 07:49:19;;;;;;;14.32;6.07;;;;;;;-142.18;100.00;-13812.19;5068926;27;20152;-73
2021/12/29 07:51:48;;;;;;;14.65;7.00;;;;;;;-142.18;100.00;-13812.19;5072675;27;20491;-74
2021/12/29 07:54:16;;;;;;;13.30;6.18;;;;;;;-142.18;100.00;-13812.19;5062325;28;20068;-73
2021/12/29 07:56:45;;;;;;;12.27;5.90;;;;;;;-142.18;100.00;-13812.19;5044973;28;20114;-74
2021/12/29 07:59:20;;;;;;;11.25;6.03;;;;;;;-142.18;100.00;-13812.19;5150625;27;20063;-73
2021/12/29 08:01:53;;;;;;;10.63;5.35;;;;;;;-142.18;100.00;-13812.19;5178818;27;20452;-74
2021/12/29 08:04:21;;;;;;;12.45;6.10;;;;;;;-142.18;100.00;-13812.19;5179479;27;20759;-74
2021/12/29 08:06:52;;;;;;;9.00;5.13;;;;;;;-142.18;100.00;-13812.19;5159722;27;20089;-74
2021/12/29 08:09:39;;;;;;;10.25;5.55;;;;;;;-142.18;100.00;-13812.19;5059695;27;20068;-74
2021/12/29 08:12:09;;;;;;;9.98;5.43;;;;;;;-142.18;100.00;-13812.19;5053056;28;20065;-73
2021/12/29 08:14:36;;;;;;;13.68;6.05;;;;;;;-142.18;100.00;-13812.19;5034974;28;20416;-74
2021/12/29 08:17:05;;;;;;;10.05;5.18;;;;;;;-142.18;100.00;-13812.19;5050574;28;20061;-73
2021/12/29 08:19:32;;;;;;;11.80;5.55;;;;;;;-142.18;100.00;-13812.19;5050839;28;20071;-73
2021/12/29 08:21:59;;;;;;;11.85;5.75;;;;;;;-142.18;100.00;-13812.19;5051679;28;20100;-73
2021/12/29 08:24:27;;;;;;;10.60;5.35;;;;;;;-142.18;100.00;-13812.19;5052027;28;20088;-72
2021/12/29 08:26:55;;;;;;;8.80;5.00;;;;;;;-142.18;100.00;-13812.19;5134540;27;20117;-73
2021/12/29 08:29:22;;;;;;;11.40;5.68;;;;;;;-142.18;100.00;-13812.19;5119430;27;20688;-72
2021/12/29 08:31:50;;;;;;;8.90;5.45;;;;;;;-142.18;100.00;-13812.19;5129450;27;20051;-73
2021/12/29 08:34:19;;;;;;;11.63;6.13;;;;;;;-142.18;100.00;-13812.19;5142781;27;20060;-73
2021/12/29 08:36:45;;;;;;;10.35;5.90;;;;;;;-142.18;100.00;-13812.19;5135324;27;20427;-74
2021/12/29 08:39:14;;;;;;;11.55;6.00;;;;;;;-142.18;100.00;-13812.19;5134726;27;20055;-73
2021/12/29 08:41:43;;;;;;;13.63;5.43;;;;;;;-142.18;100.00;-13812.19;5051358;27;20083;-73
2021/12/29 08:44:13;;;;;;;9.73;5.50;;;;;;;-142.18;100.00;-13812.19;5050478;27;20062;-72
2021/12/29 08:46:47;;;;;;;9.52;5.07;;;;;;;-142.18;100.00;-13812.19;5052633;27;20061;-74
2021/12/29 08:49:17;;;;;;;15.38;7.22;;;;;;;-142.18;100.00;-13812.19;5035996;28;20594;-75
2021/12/29 08:51:45;;;;;;;10.90;7.18;;;;;;;-142.18;100.00;-13812.19;5052872;27;20168;-75
2021/12/29 08:54:20;;;;;;;9.68;5.82;;;;;;;-142.18;100.00;-13812.19;5051866;28;20061;-74
2021/12/29 08:56:48;;;;;;;10.18;5.53;;;;;;;-142.18;100.00;-13812.19;5046078;28;20122;-74
2021/12/29 08:59:17;;;;;;;7.43;4.03;;;;;;;-142.18;100.00;-13812.19;5051149;27;20419;-74
2021/12/29 09:01:56;;;;;;;10.25;4.07;;;;;;;-142.18;100.00;-13812.19;5151934;27;20066;-73
2021/12/29 09:06:52;;;;;;;6.75;3.72;;;;;;;-142.18;100.00;-13812.19;5081390;27;44619;-73
2021/12/29 09:09:24;;;;;;;8.20;4.00;;;;;;;-142.18;100.00;66044.13;5033281;28;20079;-73
2021/12/29 09:11:58;;;;;;;6.70;3.58;;;;;;;-142.18;100.00;54325.47;5032486;28;20181;-73
2021/12/29 09:14:29;;;;;;;6.07;3.80;;;;;;;-142.18;100.00;-13812.19;5032884;28;20057;-73
2021/12/29 09:17:00;;;;;;;6.28;3.95;;;;;;;-142.18;100.00;-13812.19;5049920;28;20053;-73
2021/12/29 09:19:27;;;;;;;6.50;3.53;;;;;;;-142.18;100.00;-13812.19;5049718;27;20130;-73
2021/12/29 09:21:56;;;;;;;9.70;5.45;;;;;;;-142.18;100.00;50593.22;5113936;27;20060;-71
2021/12/29 09:24:26;;;;;;;6.32;3.97;;;;;;;-142.18;100.00;52603.41;5013433;28;20754;-74
2021/12/29 09:26:55;;;;;;;7.32;4.32;;;;;;;-142.18;100.00;49948.97;5015371;28;20154;-72
2021/12/29 09:29:23;;;;;;;11.93;7.10;;;;;;;-142.18;100.00;41669.94;5051253;28;20198;-74
2021/12/29 09:31:51;;;;;;;9.27;5.40;;;;;;;-142.18;100.00;51661.81;5050736;27;20336;-73
2021/12/29 09:34:19;;;;;;;9.20;5.15;;;;;;;-142.18;100.00;44226.03;5049123;28;20148;-74
2021/12/29 09:36:50;;;;;;;9.20;5.18;;;;;;;-142.18;100.00;52504.38;5049105;28;20057;-74
2021/12/29 09:39:18;;;;;;;10.13;5.90;;;;;;;-142.18;100.00;-13812.19;5050860;28;20375;-74
2021/12/29 09:41:46;;;;;;;13.02;6.68;;;;;;;-142.18;100.00;-13812.19;5052187;28;20147;-74
2021/12/29 09:44:15;;;;;;;13.18;7.10;;;;;;;-142.18;100.00;-13812.19;5050704;28;20401;-74
2021/12/29 09:46:42;;;;;;;10.75;6.60;;;;;;;-142.18;100.00;-13812.19;5048643;28;20111;-74
2021/12/29 09:49:23;;;;;;;11.75;7.00;;;;;;;-142.18;100.00;-13812.19;5051488;28;20081;-75
2021/12/29 09:51:50;;;;;;;13.90;8.25;;;;;;;-142.18;100.00;-13812.19;5032351;27;20065;-72
2021/12/29 09:54:18;;;;;;;13.38;7.68;;;;;;;-142.18;100.00;-13812.19;5116181;27;20049;-73
2021/12/29 09:56:47;;;;;;;16.85;10.45;;;;;;;-142.18;100.00;-13812.19;5019907;28;20463;-73
2021/12/29 09:59:22;;;;;;;19.67;10.65;;;;;;;-142.18;100.00;-13812.19;5004333;28;20062;-74
2021/12/29 10:01:51;;;;;;;19.38;10.30;;;;;;;-142.18;100.00;-13812.19;4977141;28;20054;-74
2021/12/29 10:04:19;;;;;;;17.75;9.77;;;;;;;-142.18;100.00;-13812.19;5016741;28;20062;-74
2021/12/29 10:06:47;;;;;;;22.60;11.55;;;;;;;-142.18;100.00;-13812.19;5030505;28;20076;-74
2021/12/29 10:09:21;;;;;;;22.95;12.43;;;;;;;-142.18;100.00;-13812.19;5029130;28;20062;-74
2021/12/29 10:12:10;;;;;;;18.33;11.80;;;;;;;-142.18;100.00;-13812.19;5005684;28;20058;-74
2021/12/29 10:14:39;;;;;;;21.60;12.15;;;;;;;-142.18;100.00;-13812.19;5030608;28;20058;-77
2021/12/29 10:17:12;;;;;;;20.35;11.70;;;;;;;-142.18;100.00;-13812.19;5010133;28;20102;-73
2021/12/29 10:19:40;;;;;;;20.58;11.80;;;;;;;-142.18;100.00;-13812.19;4993693;27;20070;-72
2021/12/29 10:22:07;;;;;;;20.45;12.23;;;;;;;-142.18;100.00;-13812.19;4993616;28;20070;-72
2021/12/29 10:24:34;;;;;;;20.42;11.48;;;;;;;-142.18;100.00;-13812.19;5024458;28;20543;-72
2021/12/29 10:27:03;;;;;;;21.20;11.43;;;;;;;-142.18;100.00;-13812.19;5030401;27;20370;-72
2021/12/29 10:29:30;;;;;;;22.98;12.20;;;;;;;-142.18;100.00;-13812.19;5050163;28;20057;-73
2021/12/29 10:32:07;;;;;;;15.45;11.75;;;;;;;-142.18;100.00;-13812.19;5118098;27;20057;-73
2021/12/29 10:34:37;;;;;;;15.57;10.52;;;;;;;-142.18;100.00;-13812.19;5048912;28;20058;-73
2021/12/29 10:37:09;;;;;;;17.10;10.70;;;;;;;-142.18;100.00;-13812.19;5116434;27;20125;-73
2021/12/29 10:39:43;;;;;;;17.70;11.10;;;;;;;-142.18;100.00;-13812.19;5116431;27;20118;-73
2021/12/29 10:42:18;;;;;;;22.73;12.65;;;;;;;-142.18;100.00;-13812.19;5048918;28;20058;-73
2021/12/29 10:44:59;;;;;;;24.33;13.43;;;;;;;-142.18;100.00;-13812.19;5028882;27;20899;-74
2021/12/29 10:47:37;;;;;;;22.70;13.55;;;;;;;-142.18;100.00;-13812.19;5148356;27;20066;-72
2021/12/29 10:50:12;;;;;;;23.95;12.48;;;;;;;-142.18;100.00;-13812.19;5117334;27;20061;-73
2021/12/29 10:52:49;;;;;;;23.00;14.48;;;;;;;-142.18;100.00;-13812.19;5118414;27;20069;-73
2021/12/29 10:55:31;;;;;;;25.73;14.13;;;;;;;-142.18;100.00;-13812.19;5050148;28;20464;-74
2021/12/29 10:58:20;;;;;;;27.58;14.95;;;;;;;-142.18;100.00;-13812.19;5051859;27;20366;-73
2021/12/29 11:01:11;;;;;;;27.58;15.93;;;;;;;-142.18;100.00;-13812.19;5050169;28;20421;-73
2021/12/29 11:03:55;;;;;;;30.13;15.60;;;;;;;-142.18;100.00;-13812.19;5097117;27;20863;-73
2021/12/29 11:06:26;;;;;;;29.33;16.63;;;;;;;-142.18;100.00;-13812.19;5029321;28;20057;-73
2021/12/29 11:09:02;;;;;;;26.13;15.98;;;;;;;-142.18;100.00;-13812.19;5111377;27;20149;-74
2021/12/29 11:11:53;;;;;;;28.33;16.90;;;;;;;-142.18;100.00;-13812.19;5038999;27;20058;-74